TimeEDT,TemperatureF,Dew PointF,Humidity,Sea Level PressureIn,VisibilityMPH,Wind Direction,Wind SpeedMPH,Gust SpeedMPH,PrecipitationIn,Events,Conditions,WindDirDegrees,DateUTC
12:53 AM,48.0,44.1,86,30.29,10.0,Calm,Calm,-,N/A,,Partly Cloudy,0,2012-10-09 04:53:00
1:53 AM,46.9,44.1,90,30.30,10.0,Calm,Calm,-,N/A,,Partly Cloudy,0,2012-10-09 05:53:00
2:53 AM,48.0,45.0,89,30.26,10.0,Calm,Calm,-,N/A,,Mostly Cloudy,0,2012-10-09 06:53:00
5:08 AM,48.2,44.6,87,30.25,10.0,Calm,Calm,-,N/A,,Mostly Cloudy,0,2012-10-09 09:08:00
5:53 AM,52.0,46.9,83,30.25,10.0,NNE,3.5,-,N/A,,Overcast,30,2012-10-09 09:53:00
6:02 AM,53.6,48.2,82,30.24,10.0,Calm,Calm,-,N/A,,Overcast,0,2012-10-09 10:02:00
6:43 AM,53.6,48.2,82,30.25,10.0,Calm,Calm,-,N/A,,Overcast,0,2012-10-09 10:43:00
6:53 AM,54.0,48.9,83,30.26,10.0,Calm,Calm,-,N/A,,Overcast,0,2012-10-09 10:53:00
8:53 AM,55.9,48.0,75,30.26,10.0,ENE,4.6,-,N/A,,Overcast,60,2012-10-09 12:53:00
9:00 AM,55.4,48.2,77,30.26,10.0,East,6.9,-,N/A,,Overcast,80,2012-10-09 13:00:00
9:53 AM,57.0,48.0,72,30.26,10.0,ENE,6.9,-,N/A,,Overcast,70,2012-10-09 13:53:00
10:53 AM,57.9,48.0,70,30.25,10.0,ENE,10.4,-,N/A,,Overcast,70,2012-10-09 14:53:00
11:53 AM,60.1,46.0,60,30.23,10.0,East,6.9,-,N/A,,Overcast,90,2012-10-09 15:53:00
12:53 PM,59.0,48.0,67,30.22,10.0,NE,10.4,17.3,N/A,,Overcast,50,2012-10-09 16:53:00
1:53 PM,57.9,50.0,75,30.20,10.0,NE,10.4,-,N/A,,Overcast,50,2012-10-09 17:53:00
2:19 PM,57.2,51.8,82,30.20,10.0,NNE,8.1,-,0.00,,Overcast,30,2012-10-09 18:19:00
2:30 PM,57.2,50.0,77,30.20,10.0,NE,8.1,-,0.00,,Overcast,40,2012-10-09 18:30:00
2:53 PM,57.0,48.9,74,30.19,10.0,NE,9.2,17.3,0.00,,Overcast,50,2012-10-09 18:53:00
3:53 PM,57.0,48.0,72,30.18,10.0,ENE,9.2,-,N/A,,Overcast,60,2012-10-09 19:53:00
4:16 PM,57.2,46.4,67,30.18,10.0,NE,11.5,16.1,N/A,,Overcast,50,2012-10-09 20:16:00
4:23 PM,57.2,46.4,67,30.18,10.0,ENE,8.1,-,N/A,,Overcast,60,2012-10-09 20:23:00
4:53 PM,57.0,46.9,69,30.17,10.0,ENE,8.1,-,N/A,,Overcast,60,2012-10-09 20:53:00
5:51 PM,55.4,46.4,72,30.17,10.0,NE,6.9,-,N/A,,Overcast,50,2012-10-09 21:51:00
5:53 PM,55.9,46.9,72,30.17,10.0,ENE,8.1,-,N/A,,Overcast,60,2012-10-09 21:53:00
6:53 PM,55.9,45.0,67,30.17,10.0,NE,5.8,-,N/A,,Overcast,50,2012-10-09 22:53:00
7:53 PM,55.9,44.1,64,30.16,10.0,ENE,6.9,-,N/A,,Overcast,60,2012-10-09 23:53:00
8:53 PM,55.9,42.1,60,30.16,10.0,NE,3.5,-,N/A,,Overcast,40,2012-10-10 00:53:00
9:53 PM,55.9,45.0,67,30.16,10.0,NNE,4.6,-,N/A,,Overcast,20,2012-10-10 01:53:00
10:53 PM,55.0,46.0,72,30.14,10.0,NNE,3.5,-,N/A,,Overcast,20,2012-10-10 02:53:00
11:53 PM,55.0,48.0,77,30.12,10.0,ENE,5.8,-,N/A,,Mostly Cloudy,70,2012-10-10 03:53:00